createdAt,value
2022-08-17T00:00:43.244Z,19.70
2022-08-17T00:03:22.253Z,19.70
2022-08-17T00:05:54.616Z,19.70
2022-08-17T00:08:25.854Z,19.60
2022-08-17T00:10:54.637Z,19.60
2022-08-17T00:13:44.654Z,19.60
2022-08-17T00:16:18.145Z,19.60
2022-08-17T00:19:06.104Z,19.60
2022-08-17T00:22:29.804Z,19.60
2022-08-17T00:24:24.482Z,19.60
2022-08-17T00:26:52.507Z,19.60
2022-08-17T00:29:20.323Z,19.60
2022-08-17T00:31:48.597Z,19.60
2022-08-17T00:34:16.455Z,19.60
2022-08-17T00:36:44.276Z,19.50
2022-08-17T00:39:11.866Z,19.50
2022-08-17T00:41:42.251Z,19.50
2022-08-17T00:44:12.381Z,19.50
2022-08-17T00:46:43.235Z,19.50
2022-08-17T00:49:13.042Z,19.50
2022-08-17T00:51:43.575Z,19.50
2022-08-17T00:54:31.141Z,19.50
2022-08-17T00:57:00.786Z,19.50
2022-08-17T00:59:37.699Z,19.50
2022-08-17T01:02:08.610Z,19.60
2022-08-17T01:04:36.761Z,19.50
2022-08-17T01:07:05.941Z,19.50
2022-08-17T01:09:33.878Z,19.50
2022-08-17T01:12:01.668Z,19.50
2022-08-17T01:14:29.232Z,19.40
2022-08-17T01:16:56.785Z,19.40
2022-08-17T01:19:36.907Z,19.40
2022-08-17T01:22:11.266Z,19.30
2022-08-17T01:24:42.387Z,19.40
2022-08-17T01:27:11.541Z,19.30
2022-08-17T01:29:43.382Z,19.30
2022-08-17T01:32:11.136Z,19.40
2022-08-17T01:34:43.933Z,19.40
2022-08-17T01:37:19.735Z,19.30
2022-08-17T01:39:55.840Z,19.30
2022-08-17T01:42:30.970Z,19.30
2022-08-17T01:45:05.333Z,19.30
2022-08-17T01:47:33.045Z,19.30
2022-08-17T01:50:10.821Z,19.40
2022-08-17T01:52:38.965Z,19.30
2022-08-17T01:55:07.804Z,19.40
2022-08-17T01:57:35.356Z,19.40
2022-08-17T02:00:05.780Z,19.40
2022-08-17T02:02:33.327Z,19.40
2022-08-17T02:05:00.743Z,19.40
2022-08-17T02:07:29.123Z,19.40
2022-08-17T02:09:56.966Z,19.40
2022-08-17T02:12:38.444Z,19.40
2022-08-17T02:15:09.642Z,19.30
2022-08-17T02:17:37.137Z,19.30
2022-08-17T02:20:05.665Z,19.30
2022-08-17T02:22:33.276Z,19.30
2022-08-17T02:25:02.592Z,19.30
2022-08-17T02:27:30.394Z,19.30
2022-08-17T02:29:58.001Z,19.30
2022-08-17T02:32:28.007Z,19.30
2022-08-17T02:34:57.356Z,19.30
2022-08-17T02:37:26.000Z,19.30
2022-08-17T02:39:54.094Z,19.20
2022-08-17T02:42:28.008Z,19.20
2022-08-17T02:44:55.661Z,19.20
2022-08-17T02:47:23.479Z,19.20
2022-08-17T02:49:54.231Z,19.20
2022-08-17T02:53:01.712Z,19.20
2022-08-17T02:55:20.852Z,19.10
2022-08-17T02:57:49.645Z,19.20
2022-08-17T03:00:28.928Z,19.10
2022-08-17T03:02:57.576Z,19.10
2022-08-17T03:05:27.059Z,19.10
2022-08-17T03:07:56.441Z,19.10
2022-08-17T03:10:24.866Z,19.10
2022-08-17T03:12:53.243Z,19.10
2022-08-17T03:15:24.291Z,19.10
2022-08-17T03:17:52.517Z,19.10
2022-08-17T03:20:20.983Z,19.10
2022-08-17T03:22:53.603Z,19.10
2022-08-17T03:25:32.641Z,19.10
2022-08-17T03:28:02.203Z,19.10
2022-08-17T03:30:30.011Z,19.10
2022-08-17T03:33:00.233Z,19.20
2022-08-17T03:35:31.221Z,19.20
2022-08-17T03:38:00.384Z,19.20
2022-08-17T03:40:55.026Z,19.20
2022-08-17T03:43:16.615Z,19.20
2022-08-17T03:46:02.637Z,19.20
2022-08-17T03:48:49.422Z,19.10
2022-08-17T03:51:40.061Z,19.20
2022-08-17T03:54:28.957Z,19.10
2022-08-17T03:57:14.104Z,19.10
2022-08-17T03:59:41.850Z,19.10
2022-08-17T04:02:16.502Z,19.10
2022-08-17T04:04:44.021Z,19.20
2022-08-17T04:07:11.635Z,19.10
2022-08-17T04:09:39.220Z,19.20
2022-08-17T04:12:06.921Z,19.20
2022-08-17T04:14:51.890Z,19.20
2022-08-17T04:17:21.822Z,19.20
2022-08-17T04:19:49.255Z,19.20
2022-08-17T04:22:32.978Z,19.20
2022-08-17T04:25:13.800Z,19.30
2022-08-17T04:27:41.344Z,19.30
2022-08-17T04:30:09.527Z,19.30
2022-08-17T04:33:04.851Z,19.30
2022-08-17T04:35:46.360Z,19.50
2022-08-17T04:38:20.222Z,19.50
2022-08-17T04:41:07.107Z,19.50
2022-08-17T04:43:35.887Z,19.60
2022-08-17T04:46:10.120Z,19.60
2022-08-17T04:48:41.256Z,19.60
2022-08-17T04:51:13.780Z,19.60
2022-08-17T04:53:44.511Z,19.60
2022-08-17T04:56:16.663Z,19.60
2022-08-17T04:58:46.568Z,19.60
2022-08-17T05:01:15.324Z,19.60
2022-08-17T05:03:43.214Z,19.60
2022-08-17T05:06:11.204Z,19.50
2022-08-17T05:08:38.978Z,19.50
2022-08-17T05:11:08.404Z,19.60
2022-08-17T05:13:35.990Z,19.60
2022-08-17T05:16:04.802Z,19.60
2022-08-17T05:18:32.814Z,19.70
2022-08-17T05:21:00.520Z,19.70
2022-08-17T05:23:29.232Z,19.70
2022-08-17T05:26:25.460Z,19.70
2022-08-17T05:28:57.132Z,19.80
2022-08-17T05:31:28.858Z,19.80
2022-08-17T05:33:56.618Z,19.70
2022-08-17T05:36:42.112Z,19.70
2022-08-17T05:39:16.707Z,19.70
2022-08-17T05:41:48.495Z,19.70
2022-08-17T05:44:17.199Z,19.80
2022-08-17T05:46:50.024Z,19.80
2022-08-17T05:49:22.649Z,19.80
2022-08-17T05:52:03.111Z,19.80
2022-08-17T05:55:06.103Z,19.80
2022-08-17T05:58:02.517Z,19.80
2022-08-17T06:00:42.012Z,19.90
2022-08-17T06:03:41.840Z,20.00
2022-08-17T06:06:42.661Z,20.10
2022-08-17T06:09:24.783Z,20.20
2022-08-17T06:12:06.831Z,20.20
2022-08-17T06:14:53.620Z,20.20
2022-08-17T06:17:25.596Z,20.20
2022-08-17T06:19:56.730Z,20.10
2022-08-17T06:22:29.809Z,20.20
2022-08-17T06:25:01.188Z,20.10
2022-08-17T06:27:42.144Z,20.00
2022-08-17T06:30:24.805Z,19.90
2022-08-17T06:32:55.450Z,19.90
2022-08-17T06:35:34.174Z,20.00
2022-08-17T06:38:04.894Z,20.20
2022-08-17T06:40:52.244Z,20.50
2022-08-17T06:43:48.792Z,20.70
2022-08-17T06:46:34.681Z,20.90
2022-08-17T06:49:31.473Z,21.00
2022-08-17T06:52:46.185Z,21.20
2022-08-17T06:55:19.115Z,21.30
2022-08-17T06:57:52.194Z,21.40
2022-08-17T07:00:23.344Z,21.30
2022-08-17T07:03:02.486Z,21.10
2022-08-17T07:05:44.822Z,21.10
2022-08-17T07:08:18.700Z,21.00
2022-08-17T07:10:54.943Z,20.90
2022-08-17T07:13:29.693Z,20.90
2022-08-17T07:16:15.593Z,20.90
2022-08-17T07:18:44.012Z,20.90
2022-08-17T07:21:34.580Z,20.80
2022-08-17T07:24:30.662Z,20.80
2022-08-17T07:27:32.523Z,20.90
2022-08-17T07:30:10.840Z,21.00
2022-08-17T07:33:00.342Z,21.10
2022-08-17T07:35:31.266Z,21.20
2022-08-17T07:38:25.107Z,21.30
2022-08-17T07:41:03.506Z,21.30
2022-08-17T07:43:39.997Z,21.30
2022-08-17T07:46:41.904Z,21.30
2022-08-17T07:49:14.947Z,21.30
2022-08-17T07:51:47.458Z,21.10
2022-08-17T07:54:23.752Z,21.00
2022-08-17T07:56:58.458Z,21.00
2022-08-17T07:59:33.700Z,20.90
2022-08-17T08:02:22.020Z,20.80
2022-08-17T08:05:03.596Z,20.70
2022-08-17T08:07:50.633Z,20.60
2022-08-17T08:10:29.682Z,20.60
2022-08-17T08:13:12.280Z,20.50
2022-08-17T08:15:54.285Z,20.60
2022-08-17T08:18:53.911Z,20.60
2022-08-17T08:21:31.327Z,20.70
2022-08-17T08:24:04.137Z,20.80
2022-08-17T08:26:59.732Z,21.00
2022-08-17T08:29:49.847Z,21.20
2022-08-17T08:32:39.654Z,21.40
2022-08-17T08:35:31.038Z,21.50
2022-08-17T08:38:15.503Z,21.40
2022-08-17T08:41:07.350Z,21.50
2022-08-17T08:44:10.493Z,21.60
2022-08-17T08:46:43.633Z,21.60
2022-08-17T08:50:04.054Z,21.70
2022-08-17T08:52:53.481Z,21.70
2022-08-17T08:55:53.707Z,21.70
2022-08-17T08:58:54.779Z,21.70
2022-08-17T09:01:31.763Z,21.50
2022-08-17T09:04:24.546Z,21.40
2022-08-17T09:06:58.064Z,21.40
2022-08-17T09:09:44.194Z,21.50
2022-08-17T09:12:41.754Z,21.50
2022-08-17T09:15:33.609Z,21.50
2022-08-17T09:19:02.508Z,21.50
2022-08-17T09:21:01.439Z,21.50
2022-08-17T09:23:42.268Z,21.50
2022-08-17T09:26:37.110Z,21.50
2022-08-17T09:29:10.118Z,21.70
2022-08-17T09:31:52.710Z,21.90
2022-08-17T09:34:51.231Z,21.90
2022-08-17T09:37:27.302Z,21.90
2022-08-17T09:40:14.011Z,22.00
2022-08-17T09:43:25.634Z,21.90
2022-08-17T09:45:59.983Z,21.90
2022-08-17T09:48:41.776Z,21.90
2022-08-17T09:51:40.210Z,22.00
2022-08-17T09:54:45.340Z,22.10
2022-08-17T09:57:47.435Z,22.20
2022-08-17T10:00:23.915Z,22.20
2022-08-17T10:03:00.684Z,22.20
2022-08-17T10:05:34.489Z,22.30
2022-08-17T10:08:07.266Z,22.30
2022-08-17T10:10:34.705Z,22.30
2022-08-17T10:13:53.102Z,22.50
2022-08-17T10:16:22.222Z,22.80
2022-08-17T10:19:13.933Z,23.00
2022-08-17T10:22:15.026Z,23.20
2022-08-17T10:25:22.501Z,23.10
2022-08-17T10:27:56.673Z,23.00
2022-08-17T10:30:27.587Z,22.70
2022-08-17T10:32:59.638Z,22.70
2022-08-17T10:35:39.336Z,23.00
2022-08-17T10:38:24.568Z,23.20
2022-08-17T10:41:16.231Z,23.70
2022-08-17T10:44:39.095Z,24.20
2022-08-17T10:47:15.526Z,24.90
2022-08-17T10:49:49.788Z,25.20
2022-08-17T10:52:19.822Z,25.10
2022-08-17T10:55:08.882Z,25.10
2022-08-17T10:57:39.998Z,24.90
2022-08-17T11:00:16.227Z,25.30
2022-08-17T11:02:52.742Z,25.80
2022-08-17T11:05:54.201Z,26.20
2022-08-17T11:08:49.096Z,26.40
2022-08-17T11:11:47.620Z,26.30
2022-08-17T11:14:39.963Z,26.50
2022-08-17T11:17:25.619Z,26.80
2022-08-17T11:20:05.549Z,26.60
2022-08-17T11:23:05.090Z,27.10
2022-08-17T11:25:48.462Z,27.20
2022-08-17T11:28:18.557Z,28.30
2022-08-17T11:30:53.673Z,28.00
2022-08-17T11:33:29.901Z,29.20
2022-08-17T11:36:22.052Z,30.00
2022-08-17T11:39:13.513Z,30.20
2022-08-17T11:42:28.043Z,29.70
2022-08-17T11:45:31.898Z,28.70
2022-08-17T11:48:34.735Z,27.80
2022-08-17T11:51:47.325Z,27.40
2022-08-17T11:54:34.389Z,27.40
2022-08-17T11:57:28.062Z,27.00
2022-08-17T12:00:01.036Z,28.30
2022-08-17T12:02:31.694Z,30.30
2022-08-17T12:05:14.490Z,31.80
2022-08-17T12:07:52.874Z,33.30
2022-08-17T12:10:31.838Z,32.30
2022-08-17T12:13:04.596Z,31.00
2022-08-17T12:15:37.041Z,29.30
2022-08-17T12:18:04.643Z,28.10
2022-08-17T12:20:40.163Z,27.50
2022-08-17T12:23:30.511Z,27.20
2022-08-17T12:26:11.913Z,27.90
2022-08-17T12:28:44.393Z,29.80
2022-08-17T12:31:34.531Z,30.80
2022-08-17T12:34:04.839Z,32.50
2022-08-17T12:36:33.828Z,32.80
2022-08-17T12:39:13.899Z,31.80
2022-08-17T12:41:57.415Z,30.70
2022-08-17T12:44:40.495Z,29.40
2022-08-17T12:47:22.548Z,28.60
2022-08-17T12:50:03.788Z,28.10
2022-08-17T12:52:33.129Z,29.00
2022-08-17T12:55:11.396Z,29.40
2022-08-17T12:57:38.847Z,28.70
2022-08-17T13:00:20.766Z,28.10
2022-08-17T13:02:58.391Z,27.60
2022-08-17T13:05:55.011Z,27.00
2022-08-17T13:08:31.663Z,26.70
2022-08-17T13:11:01.292Z,26.40
2022-08-17T13:13:32.005Z,26.30
2022-08-17T13:16:05.755Z,26.20
2022-08-17T13:18:39.375Z,26.20
2022-08-17T13:21:20.218Z,26.30
2022-08-17T13:24:18.686Z,27.00
2022-08-17T13:26:57.212Z,29.60
2022-08-17T13:29:32.459Z,31.90
2022-08-17T13:32:13.333Z,32.40
2022-08-17T13:35:12.959Z,32.00
2022-08-17T13:37:38.297Z,31.20
2022-08-17T13:40:11.126Z,30.20
2022-08-17T13:42:54.216Z,29.40
2022-08-17T13:45:36.733Z,28.50
2022-08-17T13:48:24.067Z,28.00
2022-08-17T13:50:57.530Z,29.80
2022-08-17T13:53:26.655Z,31.30
2022-08-17T13:56:38.032Z,30.50
2022-08-17T13:59:12.364Z,29.90
2022-08-17T14:01:47.465Z,30.70
2022-08-17T14:04:22.477Z,32.10
2022-08-17T14:06:54.532Z,32.50
2022-08-17T14:09:26.076Z,31.80
2022-08-17T14:11:54.942Z,30.80
2022-08-17T14:14:23.368Z,29.70
2022-08-17T14:16:52.830Z,28.90
2022-08-17T14:19:24.510Z,28.30
2022-08-17T14:21:52.550Z,27.80
2022-08-17T14:24:29.662Z,27.30
2022-08-17T14:26:58.497Z,27.40
2022-08-17T14:29:28.745Z,28.40
2022-08-17T14:31:57.654Z,29.80
2022-08-17T14:34:25.784Z,31.30
2022-08-17T14:36:53.372Z,32.30
2022-08-17T14:39:21.199Z,32.10
2022-08-17T14:41:49.182Z,30.30
2022-08-17T14:44:17.173Z,29.00
2022-08-17T14:46:45.779Z,29.20
2022-08-17T14:49:15.785Z,29.00
2022-08-17T14:51:44.220Z,28.10
2022-08-17T14:54:33.273Z,27.10
2022-08-17T14:57:23.298Z,26.40
2022-08-17T14:59:54.456Z,25.90
2022-08-17T15:02:30.189Z,25.50
2022-08-17T15:05:05.978Z,25.10
2022-08-17T15:07:33.563Z,24.80
2022-08-17T15:10:02.248Z,24.60
2022-08-17T15:12:34.095Z,24.20
2022-08-17T15:15:06.455Z,23.80
2022-08-17T15:17:43.882Z,23.50
2022-08-17T15:20:17.146Z,23.10
2022-08-17T15:22:46.473Z,22.70
2022-08-17T15:25:15.323Z,22.40
2022-08-17T15:27:42.836Z,22.20
2022-08-17T15:30:11.117Z,22.10
2022-08-17T15:32:40.975Z,22.00
2022-08-17T15:35:15.748Z,21.90
2022-08-17T15:37:44.423Z,21.80
2022-08-17T15:40:12.679Z,21.80
2022-08-17T15:42:41.357Z,21.80
2022-08-17T15:45:12.748Z,21.70
2022-08-17T15:47:40.929Z,21.70
2022-08-17T15:50:09.704Z,21.70
2022-08-17T15:52:40.383Z,21.70
2022-08-17T15:55:12.391Z,21.70
2022-08-17T15:57:40.525Z,21.60
2022-08-17T16:00:09.848Z,21.60
2022-08-17T16:03:45.180Z,21.60
2022-08-17T16:05:28.694Z,21.60
2022-08-17T16:07:59.935Z,21.60
2022-08-17T16:10:34.580Z,21.50
2022-08-17T16:13:04.228Z,21.50
2022-08-17T16:15:32.332Z,21.60
2022-08-17T16:17:59.887Z,21.60
2022-08-17T16:20:27.737Z,21.70
2022-08-17T16:22:55.485Z,21.70
2022-08-17T16:25:50.305Z,21.70
2022-08-17T16:28:16.688Z,21.70
2022-08-17T16:30:44.507Z,21.70
2022-08-17T16:33:12.582Z,21.70
2022-08-17T16:35:42.123Z,21.80
2022-08-17T16:38:10.949Z,21.80
2022-08-17T16:40:38.586Z,22.00
2022-08-17T16:43:10.852Z,22.00
2022-08-17T16:45:41.002Z,22.10
2022-08-17T16:48:09.531Z,22.20
2022-08-17T16:50:37.290Z,22.20
2022-08-17T16:53:17.340Z,22.20
2022-08-17T16:55:48.882Z,22.20
2022-08-17T16:58:16.576Z,22.20
2022-08-17T17:00:45.889Z,22.30
2022-08-17T17:03:22.086Z,22.50
2022-08-17T17:06:01.660Z,22.80
2022-08-17T17:08:46.794Z,22.90
2022-08-17T17:11:21.692Z,22.90
2022-08-17T17:13:58.636Z,22.70
2022-08-17T17:16:29.305Z,22.50
2022-08-17T17:19:12.133Z,22.40
2022-08-17T17:21:49.637Z,22.30
2022-08-17T17:25:01.708Z,22.10
2022-08-17T17:27:37.848Z,22.00
2022-08-17T17:30:24.422Z,21.80
2022-08-17T17:32:51.936Z,21.80
2022-08-17T17:35:28.447Z,21.70
2022-08-17T17:37:58.147Z,21.60
2022-08-17T17:40:44.660Z,21.50
2022-08-17T17:43:37.869Z,21.40
2022-08-17T17:46:27.039Z,21.30
2022-08-17T17:48:57.033Z,21.20
2022-08-17T17:52:09.361Z,21.20
2022-08-17T17:54:57.632Z,21.20
2022-08-17T17:57:38.347Z,21.10
2022-08-17T18:00:11.325Z,21.00
2022-08-17T18:02:59.866Z,21.10
2022-08-17T18:05:47.805Z,21.00
2022-08-17T18:08:15.291Z,21.00
2022-08-17T18:11:05.134Z,21.00
2022-08-17T18:13:44.667Z,20.90
2022-08-17T18:16:15.410Z,20.90
2022-08-17T18:18:46.199Z,20.90
2022-08-17T18:21:16.919Z,21.00
2022-08-17T18:23:54.716Z,21.00
2022-08-17T18:26:36.748Z,21.00
2022-08-17T18:29:16.029Z,21.00
2022-08-17T18:31:43.565Z,21.00
2022-08-17T18:37:26.777Z,21.00
2022-08-17T18:39:54.417Z,21.00
2022-08-17T18:42:28.388Z,21.10
2022-08-17T18:44:56.699Z,21.10
2022-08-17T18:47:29.556Z,21.10
2022-08-17T18:50:18.918Z,21.00
2022-08-17T18:52:48.844Z,21.00
2022-08-17T18:55:31.417Z,21.00
2022-08-17T18:58:20.889Z,20.90
2022-08-17T19:00:51.089Z,20.90
2022-08-17T19:03:18.708Z,20.90
2022-08-17T19:06:22.203Z,20.90
2022-08-17T19:08:50.031Z,20.90
2022-08-17T19:11:26.179Z,20.80
2022-08-17T19:13:57.664Z,20.80
2022-08-17T19:16:52.337Z,20.80
2022-08-17T19:19:28.696Z,20.80
2022-08-17T19:22:02.464Z,20.90
2022-08-17T19:24:33.727Z,20.90
2022-08-17T19:27:19.898Z,20.90
2022-08-17T19:30:08.282Z,20.80
2022-08-17T19:32:36.377Z,20.80
2022-08-17T19:35:08.239Z,20.90
2022-08-17T19:38:22.164Z,20.90
2022-08-17T19:41:19.414Z,20.90
2022-08-17T19:44:02.282Z,20.80
2022-08-17T19:46:48.538Z,20.80
2022-08-17T19:49:41.159Z,20.70
2022-08-17T19:52:24.210Z,20.60
2022-08-17T19:55:04.763Z,20.60
2022-08-17T19:57:34.910Z,20.60
2022-08-17T20:00:05.201Z,20.60
2022-08-17T20:02:57.170Z,20.70
2022-08-17T20:05:29.446Z,20.70
2022-08-17T20:08:17.843Z,20.70
2022-08-17T20:11:07.005Z,20.70
2022-08-17T20:13:44.305Z,20.70
2022-08-17T20:16:12.504Z,20.80
2022-08-17T20:19:00.378Z,20.80
2022-08-17T20:21:48.567Z,20.70
2022-08-17T20:24:34.482Z,20.60
2022-08-17T20:27:21.737Z,20.60
2022-08-17T20:30:13.207Z,20.50
2022-08-17T20:32:52.490Z,20.40
2022-08-17T20:35:27.122Z,20.30
2022-08-17T20:38:36.349Z,20.30
2022-08-17T20:41:04.065Z,20.30
2022-08-17T20:43:35.081Z,20.30
2022-08-17T20:46:24.439Z,20.20
2022-08-17T20:48:56.988Z,20.20
2022-08-17T20:51:46.263Z,20.20
2022-08-17T20:54:44.505Z,20.10
2022-08-17T20:57:38.271Z,20.10
2022-08-17T21:00:27.672Z,20.10
2022-08-17T21:03:23.026Z,20.10
2022-08-17T21:06:00.202Z,20.10
2022-08-17T21:08:40.361Z,20.10
2022-08-17T21:12:02.509Z,20.10
2022-08-17T21:14:26.137Z,20.10
2022-08-17T21:17:02.786Z,20.10
2022-08-17T21:20:11.561Z,20.00
2022-08-17T21:22:48.636Z,20.00
2022-08-17T21:25:43.730Z,19.90
2022-08-17T21:28:21.503Z,19.90
2022-08-17T21:30:58.705Z,19.80
2022-08-17T21:33:34.170Z,19.80
2022-08-17T21:36:13.594Z,19.80
2022-08-17T21:38:44.137Z,19.70
2022-08-17T21:41:31.822Z,19.70
2022-08-17T21:44:21.754Z,19.70
2022-08-17T21:46:52.386Z,19.70
2022-08-17T21:49:27.074Z,19.60
2022-08-17T21:51:56.222Z,19.60
2022-08-17T21:54:26.401Z,19.60
2022-08-17T21:56:54.767Z,19.70
2022-08-17T21:59:26.225Z,19.70
2022-08-17T22:01:56.118Z,19.60
2022-08-17T22:04:32.817Z,19.50
2022-08-17T22:07:08.949Z,19.60
2022-08-17T22:09:45.362Z,19.60
2022-08-17T22:12:20.360Z,19.50
2022-08-17T22:15:07.624Z,19.50
2022-08-17T22:17:46.558Z,19.50
2022-08-17T22:20:20.662Z,19.40
2022-08-17T22:23:06.721Z,19.30
2022-08-17T22:25:40.785Z,19.30
2022-08-17T22:28:12.837Z,19.30
2022-08-17T22:31:02.012Z,19.30
2022-08-17T22:33:37.828Z,19.40
2022-08-17T22:36:14.529Z,19.50
2022-08-17T22:38:43.595Z,19.40
2022-08-17T22:41:14.192Z,19.40
2022-08-17T22:43:44.651Z,19.40
2022-08-17T22:46:12.781Z,19.30
2022-08-17T22:48:52.511Z,19.30
2022-08-17T22:51:24.022Z,19.20
2022-08-17T22:54:13.227Z,19.20
2022-08-17T22:57:18.702Z,19.20
2022-08-17T22:59:53.054Z,19.10
2022-08-17T23:02:30.462Z,19.10
2022-08-17T23:05:13.167Z,19.10
2022-08-17T23:07:48.879Z,19.10
2022-08-17T23:10:16.355Z,19.00
2022-08-17T23:12:43.833Z,19.10
2022-08-17T23:15:16.547Z,19.10
2022-08-17T23:17:45.262Z,19.10
2022-08-17T23:20:15.178Z,19.10
2022-08-17T23:22:51.871Z,19.10
2022-08-17T23:25:29.797Z,19.10
2022-08-17T23:28:01.839Z,19.00
2022-08-17T23:30:31.361Z,19.00
2022-08-17T23:33:01.490Z,18.90
2022-08-17T23:35:39.824Z,18.80
2022-08-17T23:38:12.527Z,18.90
2022-08-17T23:40:41.101Z,18.80
2022-08-17T23:45:59.828Z,18.90
2022-08-17T23:48:35.640Z,18.80
2022-08-17T23:51:12.456Z,18.80
2022-08-17T23:53:47.434Z,18.80
2022-08-17T23:56:15.541Z,18.80
2022-08-17T23:58:44.941Z,18.70
